sensor_id;sensor_type;location;lat;lon;timestamp;pressure;altitude;pressure_sealevel;temperature;humidity
73205;BME280;61413;-27.702;153.216;2022-08-11T00:02:29;102544.36;;;16.54;30.51
73205;BME280;61413;-27.702;153.216;2022-08-11T00:04:51;102545.09;;;16.96;30.22
73205;BME280;61413;-27.702;153.216;2022-08-11T00:08:00;102551.68;;;16.96;29.82
73205;BME280;61413;-27.702;153.216;2022-08-11T00:10:30;102542.56;;;17.04;29.43
73205;BME280;61413;-27.702;153.216;2022-08-11T00:12:58;102523.75;;;16.88;29.09
73205;BME280;61413;-27.702;153.216;2022-08-11T00:15:22;102517.18;;;17.50;28.73
73205;BME280;61413;-27.702;153.216;2022-08-11T00:17:47;102519.27;;;17.16;28.58
73205;BME280;61413;-27.702;153.216;2022-08-11T00:20:14;102514.29;;;17.03;28.54
73205;BME280;61413;-27.702;153.216;2022-08-11T00:22:40;102515.62;;;17.46;28.18
73205;BME280;61413;-27.702;153.216;2022-08-11T00:25:10;102514.95;;;17.69;27.88
73205;BME280;61413;-27.702;153.216;2022-08-11T00:27:39;102514.66;;;17.97;27.44
73205;BME280;61413;-27.702;153.216;2022-08-11T00:31:09;102511.85;;;18.40;27.08
73205;BME280;61413;-27.702;153.216;2022-08-11T00:33:36;102504.64;;;18.79;26.73
73205;BME280;61413;-27.702;153.216;2022-08-11T00:36:02;102496.67;;;18.80;26.55
73205;BME280;61413;-27.702;153.216;2022-08-11T00:38:30;102491.90;;;18.86;26.35
73205;BME280;61413;-27.702;153.216;2022-08-11T00:41:00;102493.94;;;18.88;26.25
73205;BME280;61413;-27.702;153.216;2022-08-11T00:43:34;102496.84;;;18.99;26.04
73205;BME280;61413;-27.702;153.216;2022-08-11T00:46:10;102501.03;;;19.22;25.90
73205;BME280;61413;-27.702;153.216;2022-08-11T00:48:27;102499.22;;;19.27;25.74
73205;BME280;61413;-27.702;153.216;2022-08-11T00:50:50;102495.48;;;19.49;25.68
73205;BME280;61413;-27.702;153.216;2022-08-11T00:53:38;102493.05;;;19.63;25.69
73205;BME280;61413;-27.702;153.216;2022-08-11T00:56:01;102497.10;;;18.71;26.32
73205;BME280;61413;-27.702;153.216;2022-08-11T01:03:38;102499.99;;;18.91;26.42
73205;BME280;61413;-27.702;153.216;2022-08-11T01:06:05;102483.12;;;19.76;25.76
73205;BME280;61413;-27.702;153.216;2022-08-11T01:08:40;102477.97;;;19.44;25.88
73205;BME280;61413;-27.702;153.216;2022-08-11T01:11:04;102474.75;;;20.17;25.35
73205;BME280;61413;-27.702;153.216;2022-08-11T01:13:32;102470.22;;;20.51;25.17
73205;BME280;61413;-27.702;153.216;2022-08-11T01:16:07;102470.03;;;20.20;25.46
73205;BME280;61413;-27.702;153.216;2022-08-11T01:19:06;102478.01;;;19.81;25.49
73205;BME280;61413;-27.702;153.216;2022-08-11T01:21:04;102471.70;;;19.41;25.93
73205;BME280;61413;-27.702;153.216;2022-08-11T01:26:53;102468.63;;;19.48;26.26
73205;BME280;61413;-27.702;153.216;2022-08-11T01:28:47;102467.81;;;19.80;25.77
73205;BME280;61413;-27.702;153.216;2022-08-11T01:37:30;102466.87;;;20.35;25.65
73205;BME280;61413;-27.702;153.216;2022-08-11T01:39:57;102468.12;;;20.25;25.18
73205;BME280;61413;-27.702;153.216;2022-08-11T01:43:17;102463.49;;;20.66;24.84
73205;BME280;61413;-27.702;153.216;2022-08-11T01:44:50;102460.81;;;20.97;24.51
73205;BME280;61413;-27.702;153.216;2022-08-11T01:47:01;102459.29;;;20.25;24.63
73205;BME280;61413;-27.702;153.216;2022-08-11T01:49:24;102446.81;;;20.38;24.71
73205;BME280;61413;-27.702;153.216;2022-08-11T01:52:05;102431.96;;;20.40;24.70
73205;BME280;61413;-27.702;153.216;2022-08-11T01:54:16;102431.32;;;20.67;24.33
73205;BME280;61413;-27.702;153.216;2022-08-11T01:56:43;102440.51;;;20.71;24.32
73205;BME280;61413;-27.702;153.216;2022-08-11T01:59:10;102434.78;;;20.48;24.31
73205;BME280;61413;-27.702;153.216;2022-08-11T02:01:40;102430.03;;;20.31;24.30
73205;BME280;61413;-27.702;153.216;2022-08-11T02:03:59;102426.02;;;20.50;24.37
73205;BME280;61413;-27.702;153.216;2022-08-11T02:06:29;102420.91;;;20.19;24.55
73205;BME280;61413;-27.702;153.216;2022-08-11T02:08:55;102423.75;;;19.97;24.67
73205;BME280;61413;-27.702;153.216;2022-08-11T02:11:23;102421.44;;;19.58;24.87
73205;BME280;61413;-27.702;153.216;2022-08-11T02:13:48;102414.45;;;19.70;25.00
73205;BME280;61413;-27.702;153.216;2022-08-11T02:16:20;102407.85;;;19.72;25.11
73205;BME280;61413;-27.702;153.216;2022-08-11T02:18:39;102403.21;;;19.57;25.21
73205;BME280;61413;-27.702;153.216;2022-08-11T02:22:21;102396.43;;;19.50;25.47
73205;BME280;61413;-27.702;153.216;2022-08-11T02:24:44;102395.79;;;19.64;25.56
73205;BME280;61413;-27.702;153.216;2022-08-11T02:27:08;102388.91;;;19.75;25.76
73205;BME280;61413;-27.702;153.216;2022-08-11T02:29:37;102378.75;;;19.62;25.76
73205;BME280;61413;-27.702;153.216;2022-08-11T02:32:06;102371.48;;;19.98;25.44
73205;BME280;61413;-27.702;153.216;2022-08-11T02:34:37;102365.55;;;20.32;25.31
73205;BME280;61413;-27.702;153.216;2022-08-11T02:36:59;102362.95;;;20.22;25.20
73205;BME280;61413;-27.702;153.216;2022-08-11T02:39:21;102358.34;;;20.01;25.14
73205;BME280;61413;-27.702;153.216;2022-08-11T02:44:26;102343.72;;;20.17;25.03
73205;BME280;61413;-27.702;153.216;2022-08-11T02:46:48;102337.42;;;20.04;24.79
73205;BME280;61413;-27.702;153.216;2022-08-11T02:50:20;102334.54;;;20.60;24.66
73205;BME280;61413;-27.702;153.216;2022-08-11T02:52:49;102333.07;;;20.72;24.45
73205;BME280;61413;-27.702;153.216;2022-08-11T02:55:24;102333.53;;;20.54;24.59
73205;BME280;61413;-27.702;153.216;2022-08-11T02:57:39;102322.64;;;20.47;24.67
73205;BME280;61413;-27.702;153.216;2022-08-11T03:00:05;102319.95;;;20.13;24.61
73205;BME280;61413;-27.702;153.216;2022-08-11T03:02:48;102323.80;;;20.21;24.84
73205;BME280;61413;-27.702;153.216;2022-08-11T03:05:05;102329.47;;;19.91;25.14
73205;BME280;61413;-27.702;153.216;2022-08-11T03:07:29;102328.10;;;19.97;25.41
73205;BME280;61413;-27.702;153.216;2022-08-11T03:10:02;102325.64;;;19.85;25.65
73205;BME280;61413;-27.702;153.216;2022-08-11T03:12:28;102323.02;;;19.58;25.84
73205;BME280;61413;-27.702;153.216;2022-08-11T03:14:51;102322.32;;;19.67;25.94
73205;BME280;61413;-27.702;153.216;2022-08-11T03:17:27;102329.34;;;19.70;26.19
73205;BME280;61413;-27.702;153.216;2022-08-11T03:19:48;102328.52;;;19.35;26.30
73205;BME280;61413;-27.702;153.216;2022-08-11T03:22:16;102321.51;;;19.48;25.98
73205;BME280;61413;-27.702;153.216;2022-08-11T03:24:45;102317.15;;;20.20;25.68
73205;BME280;61413;-27.702;153.216;2022-08-11T03:27:07;102310.84;;;20.53;25.54
73205;BME280;61413;-27.702;153.216;2022-08-11T03:29:32;102318.02;;;20.57;25.31
73205;BME280;61413;-27.702;153.216;2022-08-11T03:31:58;102316.55;;;20.82;25.20
73205;BME280;61413;-27.702;153.216;2022-08-11T03:34:23;102306.76;;;20.87;25.00
73205;BME280;61413;-27.702;153.216;2022-08-11T03:38:01;102299.75;;;20.93;24.85
73205;BME280;61413;-27.702;153.216;2022-08-11T03:39:20;102295.77;;;20.80;24.79
73205;BME280;61413;-27.702;153.216;2022-08-11T03:41:48;102296.61;;;20.96;24.58
73205;BME280;61413;-27.702;153.216;2022-08-11T03:44:46;102298.57;;;21.06;24.31
73205;BME280;61413;-27.702;153.216;2022-08-11T03:46:48;102288.19;;;21.00;24.22
73205;BME280;61413;-27.702;153.216;2022-08-11T03:49:10;102280.78;;;21.44;24.12
73205;BME280;61413;-27.702;153.216;2022-08-11T03:51:37;102277.40;;;21.28;24.16
73205;BME280;61413;-27.702;153.216;2022-08-11T03:54:10;102276.08;;;20.93;24.58
73205;BME280;61413;-27.702;153.216;2022-08-11T03:56:38;102268.77;;;20.60;24.97
73205;BME280;61413;-27.702;153.216;2022-08-11T04:02:36;102269.11;;;20.32;25.69
73205;BME280;61413;-27.702;153.216;2022-08-11T04:04:27;102263.15;;;19.92;25.95
73205;BME280;61413;-27.702;153.216;2022-08-11T04:07:18;102262.43;;;19.72;26.60
73205;BME280;61413;-27.702;153.216;2022-08-11T04:09:32;102261.07;;;19.82;27.42
73205;BME280;61413;-27.702;153.216;2022-08-11T04:11:54;102260.93;;;19.63;27.92
73205;BME280;61413;-27.702;153.216;2022-08-11T04:14:30;102253.28;;;19.42;28.17
73205;BME280;61413;-27.702;153.216;2022-08-11T04:16:39;102250.53;;;19.42;28.36
73205;BME280;61413;-27.702;153.216;2022-08-11T04:19:17;102245.26;;;19.42;28.55
73205;BME280;61413;-27.702;153.216;2022-08-11T04:27:23;102223.56;;;19.37;28.76
73205;BME280;61413;-27.702;153.216;2022-08-11T04:29:28;102212.10;;;19.09;28.77
73205;BME280;61413;-27.702;153.216;2022-08-11T04:32:03;102194.77;;;18.90;28.64
73205;BME280;61413;-27.702;153.216;2022-08-11T04:37:09;102140.78;;;19.26;28.69
73205;BME280;61413;-27.702;153.216;2022-08-11T04:39:37;102130.56;;;18.60;28.66
73205;BME280;61413;-27.702;153.216;2022-08-11T04:42:10;102110.19;;;18.66;28.89
73205;BME280;61413;-27.702;153.216;2022-08-11T04:49:04;102085.43;;;18.15;29.85
73205;BME280;61413;-27.702;153.216;2022-08-11T04:51:43;102102.56;;;18.30;29.88
73205;BME280;61413;-27.702;153.216;2022-08-11T04:53:51;102121.30;;;18.31;29.88
73205;BME280;61413;-27.702;153.216;2022-08-11T04:56:14;102116.64;;;18.22;29.95
73205;BME280;61413;-27.702;153.216;2022-08-11T04:58:54;102119.90;;;18.13;30.13
73205;BME280;61413;-27.702;153.216;2022-08-11T05:01:17;102123.12;;;18.51;30.27
73205;BME280;61413;-27.702;153.216;2022-08-11T05:07:00;102146.22;;;18.29;30.90
73205;BME280;61413;-27.702;153.216;2022-08-11T05:09:02;102137.85;;;18.19;31.06
73205;BME280;61413;-27.702;153.216;2022-08-11T05:11:44;102147.81;;;18.30;31.11
73205;BME280;61413;-27.702;153.216;2022-08-11T05:13:59;102152.94;;;18.22;31.19
73205;BME280;61413;-27.702;153.216;2022-08-11T05:16:10;102148.62;;;17.95;31.21
73205;BME280;61413;-27.702;153.216;2022-08-11T05:18:32;102146.04;;;18.03;31.13
73205;BME280;61413;-27.702;153.216;2022-08-11T05:21:02;102155.24;;;18.01;30.92
73205;BME280;61413;-27.702;153.216;2022-08-11T05:23:26;102165.11;;;18.08;30.89
73205;BME280;61413;-27.702;153.216;2022-08-11T05:25:54;102176.46;;;17.90;30.91
73205;BME280;61413;-27.702;153.216;2022-08-11T05:28:18;102183.17;;;17.95;30.87
73205;BME280;61413;-27.702;153.216;2022-08-11T05:30:46;102194.92;;;17.89;30.85
73205;BME280;61413;-27.702;153.216;2022-08-11T05:33:09;102203.22;;;18.10;30.81
73205;BME280;61413;-27.702;153.216;2022-08-11T05:35:40;102223.63;;;18.11;30.68
73205;BME280;61413;-27.702;153.216;2022-08-11T05:40:00;102213.60;;;18.40;30.65
73205;BME280;61413;-27.702;153.216;2022-08-11T05:42:25;102207.47;;;18.43;30.72
73205;BME280;61413;-27.702;153.216;2022-08-11T05:44:52;102215.00;;;18.00;30.90
73205;BME280;61413;-27.702;153.216;2022-08-11T05:47:32;102220.31;;;18.08;30.90
73205;BME280;61413;-27.702;153.216;2022-08-11T05:49:50;102232.55;;;18.16;30.99
73205;BME280;61413;-27.702;153.216;2022-08-11T05:52:15;102235.44;;;17.88;31.00
73205;BME280;61413;-27.702;153.216;2022-08-11T05:54:35;102237.36;;;17.94;30.96
73205;BME280;61413;-27.702;153.216;2022-08-11T05:57:09;102242.95;;;17.93;30.89
73205;BME280;61413;-27.702;153.216;2022-08-11T05:59:32;102241.85;;;18.00;30.88
73205;BME280;61413;-27.702;153.216;2022-08-11T06:02:03;102237.52;;;17.95;30.90
73205;BME280;61413;-27.702;153.216;2022-08-11T06:04:29;102230.42;;;18.11;30.82
73205;BME280;61413;-27.702;153.216;2022-08-11T06:09:33;102241.40;;;17.76;31.30
73205;BME280;61413;-27.702;153.216;2022-08-11T06:13:57;102251.28;;;17.16;31.68
73205;BME280;61413;-27.702;153.216;2022-08-11T06:16:26;102254.89;;;17.46;31.71
73205;BME280;61413;-27.702;153.216;2022-08-11T06:18:50;102257.95;;;17.30;31.76
73205;BME280;61413;-27.702;153.216;2022-08-11T06:21:18;102266.14;;;17.28;31.82
73205;BME280;61413;-27.702;153.216;2022-08-11T06:23:45;102260.24;;;17.21;31.82
73205;BME280;61413;-27.702;153.216;2022-08-11T06:26:10;102260.28;;;17.17;31.98
73205;BME280;61413;-27.702;153.216;2022-08-11T06:28:39;102266.07;;;17.10;32.14
73205;BME280;61413;-27.702;153.216;2022-08-11T06:31:10;102271.89;;;17.06;32.33
73205;BME280;61413;-27.702;153.216;2022-08-11T06:33:36;102259.60;;;16.98;32.52
73205;BME280;61413;-27.702;153.216;2022-08-11T06:36:01;102258.61;;;17.48;32.71
73205;BME280;61413;-27.702;153.216;2022-08-11T06:38:37;102274.72;;;17.34;32.81
73205;BME280;61413;-27.702;153.216;2022-08-11T06:40:55;102269.77;;;17.17;33.19
73205;BME280;61413;-27.702;153.216;2022-08-11T06:43:22;102266.70;;;16.97;33.47
73205;BME280;61413;-27.702;153.216;2022-08-11T06:47:43;102259.73;;;17.26;34.13
73205;BME280;61413;-27.702;153.216;2022-08-11T06:52:10;102260.58;;;17.01;34.56
73205;BME280;61413;-27.702;153.216;2022-08-11T06:54:38;102261.57;;;16.84;34.59
73205;BME280;61413;-27.702;153.216;2022-08-11T06:57:08;102259.88;;;16.59;34.64
73205;BME280;61413;-27.702;153.216;2022-08-11T07:00:54;102259.69;;;16.66;34.82
73205;BME280;61413;-27.702;153.216;2022-08-11T07:03:20;102255.17;;;16.70;34.85
73205;BME280;61413;-27.702;153.216;2022-08-11T07:05:47;102248.57;;;16.97;34.95
73205;BME280;61413;-27.702;153.216;2022-08-11T07:08:45;102237.95;;;16.66;35.16
73205;BME280;61413;-27.702;153.216;2022-08-11T07:10:51;102241.21;;;16.79;35.30
73205;BME280;61413;-27.702;153.216;2022-08-11T07:13:03;102238.69;;;16.66;35.38
73205;BME280;61413;-27.702;153.216;2022-08-11T07:15:34;102237.04;;;16.80;35.46
73205;BME280;61413;-27.702;153.216;2022-08-11T07:18:00;102244.86;;;16.54;35.46
73205;BME280;61413;-27.702;153.216;2022-08-11T07:20:25;102249.75;;;16.41;35.44
73205;BME280;61413;-27.702;153.216;2022-08-11T07:22:56;102253.48;;;16.60;35.43
73205;BME280;61413;-27.702;153.216;2022-08-11T07:25:23;102250.86;;;16.53;35.51
73205;BME280;61413;-27.702;153.216;2022-08-11T07:27:51;102251.32;;;16.37;35.60
73205;BME280;61413;-27.702;153.216;2022-08-11T07:30:15;102254.58;;;16.32;35.69
73205;BME280;61413;-27.702;153.216;2022-08-11T07:32:47;102262.14;;;16.62;35.82
73205;BME280;61413;-27.702;153.216;2022-08-11T07:35:14;102259.47;;;16.47;35.88
73205;BME280;61413;-27.702;153.216;2022-08-11T07:37:42;102259.53;;;16.39;35.88
73205;BME280;61413;-27.702;153.216;2022-08-11T07:40:05;102266.39;;;16.37;35.94
73205;BME280;61413;-27.702;153.216;2022-08-11T07:42:33;102265.62;;;16.35;36.01
73205;BME280;61413;-27.702;153.216;2022-08-11T07:45:03;102264.59;;;16.12;36.06
73205;BME280;61413;-27.702;153.216;2022-08-11T07:47:28;102269.47;;;16.29;36.11
73205;BME280;61413;-27.702;153.216;2022-08-11T07:49:56;102277.65;;;16.00;36.11
73205;BME280;61413;-27.702;153.216;2022-08-11T07:52:24;102283.64;;;16.42;36.08
73205;BME280;61413;-27.702;153.216;2022-08-11T07:54:50;102284.10;;;16.31;36.10
73205;BME280;61413;-27.702;153.216;2022-08-11T07:57:19;102291.63;;;16.19;36.13
73205;BME280;61413;-27.702;153.216;2022-08-11T07:59:46;102297.18;;;16.20;36.24
73205;BME280;61413;-27.702;153.216;2022-08-11T08:02:14;102297.62;;;16.30;36.33
73205;BME280;61413;-27.702;153.216;2022-08-11T08:04:42;102299.85;;;15.96;36.36
73205;BME280;61413;-27.702;153.216;2022-08-11T08:07:07;102303.91;;;16.01;36.39
73205;BME280;61413;-27.702;153.216;2022-08-11T08:09:35;102307.42;;;15.78;36.39
73205;BME280;61413;-27.702;153.216;2022-08-11T08:12:05;102310.85;;;15.82;36.43
73205;BME280;61413;-27.702;153.216;2022-08-11T08:14:29;102316.38;;;16.14;36.47
73205;BME280;61413;-27.702;153.216;2022-08-11T08:16:58;102320.61;;;15.96;36.50
73205;BME280;61413;-27.702;153.216;2022-08-11T08:19:25;102313.60;;;15.89;36.51
73205;BME280;61413;-27.702;153.216;2022-08-11T08:21:54;102317.09;;;15.80;36.54
73205;BME280;61413;-27.702;153.216;2022-08-11T08:24:19;102327.86;;;15.72;36.58
73205;BME280;61413;-27.702;153.216;2022-08-11T08:26:43;102322.67;;;15.88;36.58
73205;BME280;61413;-27.702;153.216;2022-08-11T08:29:11;102317.85;;;16.04;36.60
73205;BME280;61413;-27.702;153.216;2022-08-11T08:31:38;102320.71;;;16.00;36.62
73205;BME280;61413;-27.702;153.216;2022-08-11T08:34:06;102321.02;;;15.91;36.76
73205;BME280;61413;-27.702;153.216;2022-08-11T08:36:35;102322.96;;;15.74;36.86
73205;BME280;61413;-27.702;153.216;2022-08-11T08:39:03;102319.15;;;15.33;36.97
73205;BME280;61413;-27.702;153.216;2022-08-11T08:41:32;102313.79;;;15.65;37.08
73205;BME280;61413;-27.702;153.216;2022-08-11T08:44:02;102318.49;;;15.23;37.23
73205;BME280;61413;-27.702;153.216;2022-08-11T08:46:29;102318.84;;;15.65;37.30
73205;BME280;61413;-27.702;153.216;2022-08-11T08:48:52;102323.61;;;15.29;37.33
73205;BME280;61413;-27.702;153.216;2022-08-11T08:51:22;102327.37;;;15.38;37.39
73205;BME280;61413;-27.702;153.216;2022-08-11T08:53:54;102331.99;;;15.70;37.42
73205;BME280;61413;-27.702;153.216;2022-08-11T08:56:15;102335.27;;;15.56;37.43
73205;BME280;61413;-27.702;153.216;2022-08-11T08:58:42;102341.19;;;15.41;37.47
73205;BME280;61413;-27.702;153.216;2022-08-11T09:01:10;102348.26;;;15.35;37.44
73205;BME280;61413;-27.702;153.216;2022-08-11T09:03:38;102351.47;;;15.30;37.46
73205;BME280;61413;-27.702;153.216;2022-08-11T09:06:01;102347.78;;;15.56;37.40
73205;BME280;61413;-27.702;153.216;2022-08-11T09:08:31;102346.78;;;15.48;37.41
73205;BME280;61413;-27.702;153.216;2022-08-11T09:10:56;102345.27;;;15.48;37.43
73205;BME280;61413;-27.702;153.216;2022-08-11T09:13:23;102341.22;;;15.61;37.47
73205;BME280;61413;-27.702;153.216;2022-08-11T09:15:50;102341.33;;;15.42;37.58
73205;BME280;61413;-27.702;153.216;2022-08-11T09:18:14;102346.86;;;15.23;37.62
73205;BME280;61413;-27.702;153.216;2022-08-11T09:20:40;102338.86;;;15.54;37.64
73205;BME280;61413;-27.702;153.216;2022-08-11T09:23:08;102339.38;;;15.58;37.62
73205;BME280;61413;-27.702;153.216;2022-08-11T09:25:36;102343.96;;;15.25;37.77
73205;BME280;61413;-27.702;153.216;2022-08-11T09:28:03;102352.37;;;15.35;37.80
73205;BME280;61413;-27.702;153.216;2022-08-11T09:30:31;102359.71;;;15.24;37.85
73205;BME280;61413;-27.702;153.216;2022-08-11T09:33:03;102363.03;;;15.41;37.80
73205;BME280;61413;-27.702;153.216;2022-08-11T09:35:29;102368.75;;;15.54;37.81
73205;BME280;61413;-27.702;153.216;2022-08-11T09:37:55;102379.66;;;15.57;37.80
73205;BME280;61413;-27.702;153.216;2022-08-11T09:40:19;102382.93;;;15.26;37.81
73205;BME280;61413;-27.702;153.216;2022-08-11T09:42:47;102379.52;;;15.26;37.80
73205;BME280;61413;-27.702;153.216;2022-08-11T09:45:13;102387.92;;;15.52;37.76
73205;BME280;61413;-27.702;153.216;2022-08-11T09:47:38;102397.10;;;15.43;37.74
73205;BME280;61413;-27.702;153.216;2022-08-11T09:51:55;102393.53;;;15.32;37.96
73205;BME280;61413;-27.702;153.216;2022-08-11T09:54:24;102395.67;;;15.24;37.93
73205;BME280;61413;-27.702;153.216;2022-08-11T09:56:48;102403.24;;;15.17;37.90
73205;BME280;61413;-27.702;153.216;2022-08-11T09:59:16;102410.54;;;15.34;37.93
73205;BME280;61413;-27.702;153.216;2022-08-11T10:01:44;102418.78;;;15.31;37.99
73205;BME280;61413;-27.702;153.216;2022-08-11T10:04:12;102419.07;;;15.35;38.06
73205;BME280;61413;-27.702;153.216;2022-08-11T10:06:38;102418.92;;;15.32;37.97
73205;BME280;61413;-27.702;153.216;2022-08-11T10:09:01;102418.46;;;15.35;37.94
73205;BME280;61413;-27.702;153.216;2022-08-11T10:11:30;102417.32;;;15.07;37.98
73205;BME280;61413;-27.702;153.216;2022-08-11T10:14:56;102405.46;;;15.22;38.16
73205;BME280;61413;-27.702;153.216;2022-08-11T10:17:21;102407.63;;;15.19;38.08
73205;BME280;61413;-27.702;153.216;2022-08-11T10:22:21;102418.07;;;14.84;38.44
73205;BME280;61413;-27.702;153.216;2022-08-11T10:24:49;102426.19;;;14.94;38.39
73205;BME280;61413;-27.702;153.216;2022-08-11T10:27:18;102431.87;;;14.70;38.44
73205;BME280;61413;-27.702;153.216;2022-08-11T10:29:46;102431.95;;;14.78;38.59
73205;BME280;61413;-27.702;153.216;2022-08-11T10:32:16;102430.38;;;14.69;38.78
73205;BME280;61413;-27.702;153.216;2022-08-11T10:34:41;102431.63;;;14.79;38.74
73205;BME280;61413;-27.702;153.216;2022-08-11T10:37:06;102430.53;;;14.62;38.68
73205;BME280;61413;-27.702;153.216;2022-08-11T10:39:35;102427.66;;;14.45;38.79
73205;BME280;61413;-27.702;153.216;2022-08-11T10:41:59;102426.19;;;14.48;38.89
73205;BME280;61413;-27.702;153.216;2022-08-11T10:44:27;102427.78;;;14.25;38.91
73205;BME280;61413;-27.702;153.216;2022-08-11T10:46:55;102425.88;;;14.41;39.00
73205;BME280;61413;-27.702;153.216;2022-08-11T10:49:24;102420.90;;;14.13;39.02
73205;BME280;61413;-27.702;153.216;2022-08-11T10:51:48;102421.11;;;14.39;39.11
73205;BME280;61413;-27.702;153.216;2022-08-11T10:54:16;102422.97;;;14.44;39.29
73205;BME280;61413;-27.702;153.216;2022-08-11T10:56:43;102423.22;;;14.31;39.45
73205;BME280;61413;-27.702;153.216;2022-08-11T10:59:10;102422.95;;;14.11;39.49
73205;BME280;61413;-27.702;153.216;2022-08-11T11:01:41;102423.30;;;14.32;39.44
73205;BME280;61413;-27.702;153.216;2022-08-11T11:04:07;102428.38;;;14.22;39.26
73205;BME280;61413;-27.702;153.216;2022-08-11T11:06:39;102431.42;;;14.19;39.16
73205;BME280;61413;-27.702;153.216;2022-08-11T11:09:03;102431.36;;;14.01;39.01
73205;BME280;61413;-27.702;153.216;2022-08-11T11:11:34;102428.84;;;14.00;39.12
73205;BME280;61413;-27.702;153.216;2022-08-11T11:13:54;102422.91;;;14.03;39.10
73205;BME280;61413;-27.702;153.216;2022-08-11T11:16:22;102417.38;;;13.98;39.17
73205;BME280;61413;-27.702;153.216;2022-08-11T11:18:46;102425.33;;;14.23;39.26
73205;BME280;61413;-27.702;153.216;2022-08-11T11:21:18;102435.35;;;13.79;39.40
73205;BME280;61413;-27.702;153.216;2022-08-11T11:23:48;102436.81;;;13.95;39.14
73205;BME280;61413;-27.702;153.216;2022-08-11T11:26:25;102433.64;;;14.25;39.17
73205;BME280;61413;-27.702;153.216;2022-08-11T11:30:36;102432.45;;;14.30;39.21
73205;BME280;61413;-27.702;153.216;2022-08-11T11:33:03;102430.67;;;13.90;39.03
73205;BME280;61413;-27.702;153.216;2022-08-11T11:35:35;102429.06;;;14.39;38.86
73205;BME280;61413;-27.702;153.216;2022-08-11T11:37:48;102422.47;;;14.25;39.01
73205;BME280;61413;-27.702;153.216;2022-08-11T11:40:14;102415.85;;;14.10;39.15
73205;BME280;61413;-27.702;153.216;2022-08-11T11:42:40;102412.90;;;14.05;39.34
73205;BME280;61413;-27.702;153.216;2022-08-11T11:45:05;102412.38;;;14.27;39.38
73205;BME280;61413;-27.702;153.216;2022-08-11T11:47:29;102411.75;;;14.32;39.33
73205;BME280;61413;-27.702;153.216;2022-08-11T11:49:57;102406.08;;;13.84;39.36
73205;BME280;61413;-27.702;153.216;2022-08-11T11:52:25;102407.82;;;14.21;39.45
73205;BME280;61413;-27.702;153.216;2022-08-11T11:54:54;102405.36;;;14.20;39.70
73205;BME280;61413;-27.702;153.216;2022-08-11T11:57:19;102401.98;;;14.32;39.74
73205;BME280;61413;-27.702;153.216;2022-08-11T11:59:47;102397.30;;;14.03;39.79
73205;BME280;61413;-27.702;153.216;2022-08-11T12:02:13;102397.91;;;14.18;39.78
73205;BME280;61413;-27.702;153.216;2022-08-11T12:04:39;102399.74;;;14.09;39.82
73205;BME280;61413;-27.702;153.216;2022-08-11T12:07:03;102397.03;;;14.12;39.86
73205;BME280;61413;-27.702;153.216;2022-08-11T12:09:32;102400.15;;;14.13;39.84
73205;BME280;61413;-27.702;153.216;2022-08-11T12:11:59;102406.68;;;14.25;39.80
73205;BME280;61413;-27.702;153.216;2022-08-11T12:14:24;102403.57;;;14.33;39.87
73205;BME280;61413;-27.702;153.216;2022-08-11T12:16:52;102397.25;;;14.16;39.90
73205;BME280;61413;-27.702;153.216;2022-08-11T12:19:22;102395.26;;;14.26;39.95
73205;BME280;61413;-27.702;153.216;2022-08-11T12:21:44;102397.17;;;14.06;39.97
73205;BME280;61413;-27.702;153.216;2022-08-11T12:24:11;102398.03;;;14.38;39.96
73205;BME280;61413;-27.702;153.216;2022-08-11T12:26:39;102398.86;;;14.33;39.96
73205;BME280;61413;-27.702;153.216;2022-08-11T12:29:09;102393.10;;;14.54;40.02
73205;BME280;61413;-27.702;153.216;2022-08-11T12:31:33;102385.31;;;14.33;40.05
73205;BME280;61413;-27.702;153.216;2022-08-11T12:34:03;102379.03;;;14.33;40.01
73205;BME280;61413;-27.702;153.216;2022-08-11T12:36:27;102375.40;;;14.17;40.08
73205;BME280;61413;-27.702;153.216;2022-08-11T12:40:38;102373.17;;;14.11;40.53
73205;BME280;61413;-27.702;153.216;2022-08-11T12:43:04;102375.91;;;14.38;40.62
73205;BME280;61413;-27.702;153.216;2022-08-11T12:45:29;102378.38;;;14.20;40.67
73205;BME280;61413;-27.702;153.216;2022-08-11T12:48:05;102380.76;;;14.57;40.78
73205;BME280;61413;-27.702;153.216;2022-08-11T12:50:24;102375.78;;;14.41;40.98
73205;BME280;61413;-27.702;153.216;2022-08-11T12:52:54;102372.28;;;14.46;41.08
73205;BME280;61413;-27.702;153.216;2022-08-11T12:55:21;102367.53;;;14.51;41.17
73205;BME280;61413;-27.702;153.216;2022-08-11T12:57:47;102365.15;;;14.39;41.31
73205;BME280;61413;-27.702;153.216;2022-08-11T13:00:12;102365.88;;;14.13;41.42
73205;BME280;61413;-27.702;153.216;2022-08-11T13:02:36;102367.11;;;14.08;41.46
73205;BME280;61413;-27.702;153.216;2022-08-11T13:05:02;102363.26;;;14.13;41.48
73205;BME280;61413;-27.702;153.216;2022-08-11T13:07:31;102357.03;;;14.55;41.51
73205;BME280;61413;-27.702;153.216;2022-08-11T13:09:59;102358.53;;;14.28;41.58
73205;BME280;61413;-27.702;153.216;2022-08-11T13:12:27;102358.39;;;14.40;41.52
73205;BME280;61413;-27.702;153.216;2022-08-11T13:14:52;102358.12;;;14.54;41.53
73205;BME280;61413;-27.702;153.216;2022-08-11T13:17:20;102354.56;;;14.30;41.49
73205;BME280;61413;-27.702;153.216;2022-08-11T13:19:48;102352.00;;;14.74;41.44